Time;durP1;ratioP1;P1;durP2;ratioP2;P2;SDS_P1;SDS_P2;PMS_P1;PMS_P2;Temp;Humidity;BMP_temperature;BMP_pressure;BME280_temperature;BME280_humidity;BME280_pressure;Samples;Min_cycle;Max_cycle;Signal;HPM_P1;HPM_P2
2023/07/13 00:00:48;;;;;;;5.33;5.00;;;20.70;99.90;;;;;;4974761;28;20669;-77
2023/07/13 00:03:15;;;;;;;6.17;4.80;;;20.70;99.90;;;;;;4957349;28;20642;-77
2023/07/13 00:05:42;;;;;;;4.40;3.57;;;20.60;99.90;;;;;;4977117;28;20202;-77
2023/07/13 00:08:11;;;;;;;3.37;2.43;;;20.60;99.90;;;;;;4957030;28;20719;-76
2023/07/13 00:10:41;;;;;;;6.13;5.63;;;20.50;99.90;;;;;;4969722;28;20277;-77
2023/07/13 00:13:10;;;;;;;5.23;4.70;;;20.40;99.90;;;;;;4975790;28;20224;-77
2023/07/13 00:15:37;;;;;;;5.40;5.00;;;20.30;99.90;;;;;;4974119;28;20230;-77
2023/07/13 00:18:04;;;;;;;2.23;2.03;;;20.30;99.90;;;;;;4972687;28;20249;-77
2023/07/13 00:20:30;;;;;;;4.50;4.20;;;20.30;99.90;;;;;;4970392;28;20692;-77
2023/07/13 00:22:57;;;;;;;3.70;2.20;;;20.20;99.90;;;;;;4974638;28;20191;-77
2023/07/13 00:25:27;;;;;;;4.30;4.00;;;20.20;99.90;;;;;;4964773;28;20691;-77
2023/07/13 00:27:54;;;;;;;5.80;5.30;;;20.20;99.90;;;;;;4963005;28;20233;-77
2023/07/13 00:30:23;;;;;;;3.90;3.60;;;20.10;99.90;;;;;;4957469;28;20221;-77
2023/07/13 00:32:50;;;;;;;4.70;4.40;;;20.10;99.90;;;;;;4956466;28;20632;-77
2023/07/13 00:35:17;;;;;;;3.23;2.30;;;20.00;99.90;;;;;;4955847;28;20214;-76
2023/07/13 00:37:44;;;;;;;2.50;2.20;;;19.90;99.90;;;;;;4972106;28;20299;-77
2023/07/13 00:40:13;;;;;;;6.53;5.93;;;19.90;99.90;;;;;;4954411;28;20206;-78
2023/07/13 00:42:40;;;;;;;2.33;2.13;;;19.90;99.90;;;;;;4975706;28;20217;-77
2023/07/13 00:45:24;;;;;;;4.00;2.93;;;19.90;99.90;;;;;;4940586;29;20210;-77
2023/07/13 00:47:52;;;;;;;5.00;4.50;;;19.80;99.90;;;;;;4974719;28;20658;-76
2023/07/13 00:50:22;;;;;;;2.30;2.10;;;19.80;99.90;;;;;;4956757;28;20283;-76
2023/07/13 00:52:53;;;;;;;4.73;4.40;;;19.80;99.90;;;;;;4955510;28;20295;-77
2023/07/13 00:55:21;;;;;;;5.30;4.90;;;19.80;99.90;;;;;;4963682;28;20696;-76
2023/07/13 00:57:49;;;;;;;5.73;5.30;;;19.70;99.90;;;;;;4970263;28;20248;-77
2023/07/13 01:00:17;;;;;;;4.83;4.43;;;19.80;99.90;;;;;;4953961;29;20245;-77
2023/07/13 01:02:47;;;;;;;6.10;4.70;;;19.70;99.90;;;;;;4949183;28;20202;-77
2023/07/13 01:05:18;;;;;;;5.40;5.00;;;19.80;99.90;;;;;;4970184;28;20287;-77
2023/07/13 01:07:46;;;;;;;4.97;4.57;;;19.80;99.90;;;;;;4959174;28;20228;-77
2023/07/13 01:10:13;;;;;;;5.77;4.70;;;19.80;99.90;;;;;;4955448;28;20209;-78
2023/07/13 01:12:40;;;;;;;3.03;2.23;;;19.80;99.90;;;;;;4954158;28;20208;-77
2023/07/13 01:15:38;;;;;;;1.97;1.87;;;19.80;99.90;;;;;;4947663;29;20236;-77
2023/07/13 01:18:05;;;;;;;2.57;2.07;;;19.80;99.90;;;;;;4967263;28;20356;-77
2023/07/13 01:20:36;;;;;;;2.23;2.07;;;19.80;99.90;;;;;;4956423;28;20201;-77
2023/07/13 01:23:07;;;;;;;3.63;2.20;;;19.90;99.90;;;;;;4969511;28;20690;-76
2023/07/13 01:25:36;;;;;;;5.93;2.20;;;19.90;99.90;;;;;;4949065;28;20206;-77
2023/07/13 01:28:04;;;;;;;2.17;2.00;;;19.90;99.90;;;;;;4973677;28;20257;-78
2023/07/13 01:30:32;;;;;;;2.83;2.37;;;19.90;99.90;;;;;;4958049;28;20236;-77
2023/07/13 01:32:58;;;;;;;2.67;2.20;;;19.90;99.90;;;;;;4954198;28;20201;-78
2023/07/13 01:35:27;;;;;;;3.73;2.17;;;19.90;99.90;;;;;;4966606;28;20269;-77
2023/07/13 01:37:54;;;;;;;3.43;2.23;;;19.90;99.90;;;;;;4944241;28;20737;-77
2023/07/13 01:40:22;;;;;;;2.67;2.43;;;19.90;99.90;;;;;;4973675;28;20233;-77
2023/07/13 01:42:49;;;;;;;2.43;2.10;;;19.90;99.90;;;;;;4952317;28;20717;-77
2023/07/13 01:45:16;;;;;;;2.03;1.87;;;20.00;99.90;;;;;;4966414;28;20202;-77
2023/07/13 01:47:42;;;;;;;3.70;2.10;;;20.00;99.90;;;;;;4958456;28;20233;-76
2023/07/13 01:50:10;;;;;;;2.10;1.90;;;19.90;99.90;;;;;;4954827;28;20224;-77
2023/07/13 01:52:37;;;;;;;2.17;1.97;;;19.90;99.90;;;;;;4951354;28;20197;-77
2023/07/13 01:55:05;;;;;;;3.30;2.13;;;19.90;99.90;;;;;;4931702;28;20208;-77
2023/07/13 01:57:33;;;;;;;3.10;2.07;;;19.90;99.90;;;;;;4939806;28;20218;-77
2023/07/13 02:00:00;;;;;;;2.03;1.90;;;19.90;99.90;;;;;;4940295;29;20250;-77
2023/07/13 02:02:27;;;;;;;2.37;2.00;;;19.90;99.90;;;;;;4940350;28;20201;-76
2023/07/13 02:04:54;;;;;;;2.97;2.10;;;19.80;99.90;;;;;;4976498;28;20221;-76
2023/07/13 02:07:21;;;;;;;2.40;2.10;;;19.80;99.90;;;;;;4965248;28;20233;-78
2023/07/13 02:09:48;;;;;;;3.13;2.30;;;19.80;99.90;;;;;;4948566;28;20319;-77
2023/07/13 02:12:15;;;;;;;2.03;1.93;;;19.70;99.90;;;;;;4946162;28;20214;-77
2023/07/13 02:14:43;;;;;;;2.07;1.93;;;19.70;99.90;;;;;;4940728;28;20199;-78
2023/07/13 02:17:11;;;;;;;1.83;1.73;;;19.60;99.90;;;;;;4947356;28;20209;-78
2023/07/13 02:19:38;;;;;;;2.60;2.40;;;19.60;99.90;;;;;;4953802;28;20206;-76
2023/07/13 02:22:05;;;;;;;1.87;1.77;;;19.50;99.90;;;;;;4956982;28;20614;-77
2023/07/13 02:24:32;;;;;;;2.00;1.90;;;19.50;99.90;;;;;;4947402;28;20253;-77
2023/07/13 02:26:59;;;;;;;3.20;3.00;;;19.50;99.90;;;;;;4969562;28;20267;-77
2023/07/13 02:29:26;;;;;;;3.90;3.50;;;19.40;99.90;;;;;;4967554;28;20263;-77
2023/07/13 02:31:54;;;;;;;4.70;3.30;;;19.30;99.90;;;;;;4969109;28;20252;-77
2023/07/13 02:34:22;;;;;;;3.10;2.90;;;19.30;99.90;;;;;;4954460;28;20201;-77
2023/07/13 02:36:49;;;;;;;3.30;3.10;;;19.30;99.90;;;;;;4954686;28;20702;-77
2023/07/13 02:39:16;;;;;;;2.87;2.67;;;19.20;99.90;;;;;;4952031;28;20280;-77
2023/07/13 02:41:43;;;;;;;3.43;3.13;;;19.10;99.90;;;;;;4954403;28;20319;-79
2023/07/13 02:44:13;;;;;;;5.13;4.73;;;19.10;99.90;;;;;;4970789;28;20264;-76
2023/07/13 02:46:41;;;;;;;3.63;3.33;;;19.00;99.90;;;;;;4972437;28;20192;-77
2023/07/13 02:49:09;;;;;;;3.80;3.40;;;19.00;99.90;;;;;;4952701;28;20307;-76
2023/07/13 02:51:36;;;;;;;4.47;3.40;;;18.90;99.90;;;;;;4968761;28;20224;-77
2023/07/13 02:54:05;;;;;;;5.60;5.10;;;18.80;99.90;;;;;;4940229;28;20202;-77
2023/07/13 02:56:35;;;;;;;6.30;5.70;;;18.70;99.90;;;;;;4954418;28;20229;-79
2023/07/13 02:59:02;;;;;;;3.50;3.23;;;18.60;99.90;;;;;;4937985;29;20228;-78
2023/07/13 03:01:29;;;;;;;5.17;4.77;;;18.50;99.90;;;;;;4953624;28;20256;-79
2023/07/13 03:03:56;;;;;;;6.70;6.20;;;18.40;99.90;;;;;;4949666;28;20204;-79
2023/07/13 03:06:24;;;;;;;2.80;2.60;;;18.40;99.90;;;;;;4936510;29;20236;-79
2023/07/13 03:08:54;;;;;;;3.90;3.30;;;18.30;99.90;;;;;;4930731;29;20236;-77
2023/07/13 03:11:22;;;;;;;5.70;5.30;;;18.30;99.90;;;;;;4939506;29;20220;-79
2023/07/13 03:13:55;;;;;;;5.40;5.00;;;18.30;99.90;;;;;;4955716;28;20585;-78
2023/07/13 03:16:24;;;;;;;2.50;2.30;;;18.30;99.90;;;;;;4938480;28;20263;-79
2023/07/13 03:18:53;;;;;;;3.77;2.60;;;18.30;99.90;;;;;;4927991;29;20587;-79
2023/07/13 03:21:19;;;;;;;2.50;2.30;;;18.30;99.90;;;;;;4969845;28;20195;-78
2023/07/13 03:23:48;;;;;;;3.47;2.47;;;18.30;99.90;;;;;;4944249;28;20588;-78
2023/07/13 03:26:18;;;;;;;2.43;2.23;;;18.30;99.90;;;;;;4967543;28;20202;-78
2023/07/13 03:28:46;;;;;;;3.47;2.40;;;18.30;99.90;;;;;;4941982;28;20232;-78
2023/07/13 03:31:19;;;;;;;2.33;2.13;;;18.30;99.90;;;;;;4967960;28;20248;-78
2023/07/13 03:33:47;;;;;;;2.53;2.33;;;18.30;99.90;;;;;;4955287;28;20209;-79
2023/07/13 03:36:18;;;;;;;3.90;3.60;;;18.30;99.90;;;;;;4964327;28;20211;-79
2023/07/13 03:38:48;;;;;;;2.53;2.27;;;18.30;99.90;;;;;;4958023;28;20284;-79
2023/07/13 03:41:16;;;;;;;2.90;2.60;;;18.30;99.90;;;;;;4954483;28;20207;-79
2023/07/13 03:43:43;;;;;;;2.70;2.50;;;18.30;99.90;;;;;;4972398;28;20304;-80
2023/07/13 03:46:11;;;;;;;3.07;2.80;;;18.30;99.90;;;;;;4956218;28;20235;-79
2023/07/13 03:48:39;;;;;;;3.93;3.20;;;18.30;99.90;;;;;;4955120;28;20212;-78
2023/07/13 03:51:06;;;;;;;3.03;2.60;;;18.30;99.90;;;;;;4955017;28;20217;-79
2023/07/13 03:53:33;;;;;;;3.00;2.70;;;18.30;99.90;;;;;;4956013;28;20204;-79
2023/07/13 03:56:01;;;;;;;3.33;3.00;;;18.30;99.90;;;;;;4947480;28;20272;-79
2023/07/13 03:58:32;;;;;;;3.43;2.90;;;18.30;99.90;;;;;;4951504;28;20230;-78
2023/07/13 04:01:07;;;;;;;3.17;2.90;;;18.30;99.90;;;;;;4944939;29;20200;-79
2023/07/13 04:03:34;;;;;;;2.87;2.67;;;18.20;99.90;;;;;;4943902;28;20206;-78
2023/07/13 04:06:03;;;;;;;3.43;3.13;;;18.20;99.90;;;;;;4957990;28;20205;-79
2023/07/13 04:08:32;;;;;;;3.10;2.90;;;18.20;99.90;;;;;;4972116;28;20242;-78
2023/07/13 04:11:02;;;;;;;3.43;3.13;;;18.20;99.90;;;;;;4951914;29;20326;-79
2023/07/13 04:13:29;;;;;;;3.30;3.00;;;18.20;99.90;;;;;;4951809;28;20199;-79
2023/07/13 04:15:56;;;;;;;3.70;3.40;;;18.30;99.90;;;;;;4974937;28;20199;-79
2023/07/13 04:18:23;;;;;;;4.03;3.17;;;18.30;99.90;;;;;;4971610;28;20247;-78
2023/07/13 04:20:51;;;;;;;3.80;3.40;;;18.30;99.90;;;;;;4975135;28;20203;-81
2023/07/13 04:23:18;;;;;;;3.47;2.90;;;18.40;99.90;;;;;;4976639;28;20199;-79
2023/07/13 04:25:45;;;;;;;2.97;2.77;;;18.40;99.90;;;;;;4973292;28;20204;-79
2023/07/13 04:28:13;;;;;;;3.47;3.17;;;18.40;99.90;;;;;;4972516;28;20242;-79
2023/07/13 04:30:40;;;;;;;3.17;2.87;;;18.40;99.90;;;;;;4973155;28;20216;-80
2023/07/13 04:33:08;;;;;;;4.03;3.10;;;18.40;99.90;;;;;;4959386;28;20208;-79
2023/07/13 04:35:35;;;;;;;3.37;3.07;;;18.30;99.90;;;;;;4976071;28;20202;-78
2023/07/13 04:38:02;;;;;;;4.70;4.33;;;18.30;99.90;;;;;;4978778;28;20224;-79
2023/07/13 04:40:30;;;;;;;3.10;2.90;;;18.30;99.90;;;;;;4977552;28;20295;-79
2023/07/13 04:42:57;;;;;;;3.30;3.00;;;18.30;99.90;;;;;;4974755;28;20200;-79
2023/07/13 04:45:25;;;;;;;3.30;3.00;;;18.40;99.90;;;;;;4956329;28;20679;-78
2023/07/13 04:47:52;;;;;;;3.33;3.03;;;18.40;99.90;;;;;;4973119;28;20593;-79
2023/07/13 04:50:22;;;;;;;3.20;2.67;;;18.40;99.90;;;;;;4974021;28;20201;-79
2023/07/13 04:52:50;;;;;;;3.30;3.00;;;18.40;99.90;;;;;;4958043;28;20192;-79
2023/07/13 04:55:17;;;;;;;3.30;3.00;;;18.40;99.90;;;;;;4977210;28;20201;-80
2023/07/13 04:57:44;;;;;;;3.00;2.80;;;18.40;99.90;;;;;;4961286;28;20743;-79
2023/07/13 05:00:12;;;;;;;3.43;3.13;;;18.50;99.90;;;;;;4956241;28;20302;-79
2023/07/13 05:02:40;;;;;;;3.10;2.90;;;18.50;99.90;;;;;;4968332;28;20196;-80
2023/07/13 05:05:08;;;;;;;3.40;3.00;;;18.50;99.90;;;;;;4970255;28;20663;-79
2023/07/13 05:07:35;;;;;;;3.10;2.90;;;18.40;99.90;;;;;;4975344;28;20252;-80
2023/07/13 05:10:02;;;;;;;3.33;3.03;;;18.40;99.90;;;;;;4976376;28;20208;-79
2023/07/13 05:12:29;;;;;;;3.10;2.90;;;18.50;99.90;;;;;;4974015;28;20643;-79
2023/07/13 05:14:56;;;;;;;3.20;2.70;;;18.50;99.90;;;;;;4960400;28;20259;-80
2023/07/13 05:17:23;;;;;;;3.30;3.00;;;18.60;99.90;;;;;;4975822;28;20216;-80
2023/07/13 05:19:51;;;;;;;3.30;3.00;;;18.70;99.90;;;;;;4972963;28;20214;-80
2023/07/13 05:22:18;;;;;;;5.60;5.30;;;18.80;99.90;;;;;;4969967;28;20811;-80
2023/07/13 05:24:44;;;;;;;6.80;6.30;;;18.80;99.90;;;;;;4959285;28;20272;-80
2023/07/13 05:27:11;;;;;;;6.40;6.00;;;18.90;99.90;;;;;;4974880;28;20262;-80
2023/07/13 05:29:38;;;;;;;5.47;5.10;;;18.90;99.90;;;;;;4974036;28;20288;-79
2023/07/13 05:32:06;;;;;;;6.60;6.10;;;19.00;99.90;;;;;;4975533;28;20300;-80
2023/07/13 05:34:32;;;;;;;6.63;6.13;;;19.10;99.90;;;;;;4972295;28;20230;-80
2023/07/13 05:37:01;;;;;;;6.60;6.20;;;19.20;99.90;;;;;;4959025;28;20222;-80
2023/07/13 05:39:27;;;;;;;3.07;2.77;;;19.30;99.90;;;;;;4975757;28;20263;-79
2023/07/13 05:41:54;;;;;;;6.47;5.93;;;19.40;99.90;;;;;;4969350;28;20208;-80
2023/07/13 05:44:21;;;;;;;6.63;6.03;;;19.50;99.90;;;;;;4972488;28;20620;-79
2023/07/13 05:46:48;;;;;;;2.83;2.57;;;19.70;99.90;;;;;;4969715;28;20237;-78
2023/07/13 05:49:14;;;;;;;3.20;2.80;;;19.70;99.90;;;;;;4975078;28;20213;-77
2023/07/13 05:51:41;;;;;;;2.80;2.40;;;19.70;99.90;;;;;;4977381;23;20245;-80
2023/07/13 05:54:10;;;;;;;3.60;2.63;;;19.70;99.90;;;;;;4959664;28;20226;-79
2023/07/13 05:56:36;;;;;;;6.40;5.90;;;20.00;99.90;;;;;;4952380;28;20195;-77
2023/07/13 05:59:03;;;;;;;6.57;6.17;;;20.60;99.90;;;;;;5300099;22;20307;-78
2023/07/13 06:01:31;;;;;;;3.60;3.30;;;21.50;99.90;;;;;;4980758;28;20218;-79
2023/07/13 06:03:58;;;;;;;5.53;5.07;;;22.30;99.90;;;;;;4986301;28;20197;-78
2023/07/13 06:06:25;;;;;;;5.67;5.27;;;22.90;99.90;;;;;;4989530;28;20790;-78
2023/07/13 06:08:51;;;;;;;3.40;2.43;;;22.90;99.90;;;;;;4970878;28;20193;-79
2023/07/13 06:11:22;;;;;;;5.20;4.80;;;23.00;99.90;;;;;;4988564;28;20711;-79
2023/07/13 06:13:48;;;;;;;5.13;4.70;;;23.40;99.90;;;;;;4990715;28;20209;-79
2023/07/13 06:16:16;;;;;;;6.30;2.67;;;23.40;99.90;;;;;;4975048;28;20225;-79
2023/07/13 06:18:43;;;;;;;4.33;3.70;;;23.30;99.90;;;;;;4983437;28;20201;-79
2023/07/13 06:21:11;;;;;;;8.07;5.27;;;23.10;99.90;;;;;;4989284;28;20216;-78
2023/07/13 06:23:38;;;;;;;5.63;5.13;;;23.10;99.90;;;;;;4988460;28;20196;-79
2023/07/13 06:26:06;;;;;;;5.47;4.97;;;23.40;99.90;;;;;;4977013;28;20205;-77
2023/07/13 06:28:34;;;;;;;2.43;2.23;;;24.00;99.90;;;;;;4975487;28;20206;-79
2023/07/13 06:31:01;;;;;;;2.70;2.33;;;24.20;99.90;;;;;;4960935;28;20304;-80
2023/07/13 06:33:28;;;;;;;5.67;5.27;;;24.60;99.90;;;;;;4985828;28;20206;-78
2023/07/13 06:35:55;;;;;;;5.77;5.23;;;25.00;99.90;;;;;;4976461;28;20197;-78
2023/07/13 06:38:22;;;;;;;6.63;6.03;;;25.30;99.90;;;;;;4987941;28;20193;-79
2023/07/13 06:40:49;;;;;;;6.50;6.10;;;25.70;99.90;;;;;;4979958;28;20312;-79
2023/07/13 06:43:16;;;;;;;6.83;6.23;;;26.00;99.90;;;;;;4985489;28;20667;-79
2023/07/13 06:45:47;;;;;;;6.30;5.90;;;26.20;99.90;;;;;;4971840;28;20282;-79
2023/07/13 06:48:14;;;;;;;6.37;5.93;;;26.30;99.90;;;;;;4988048;28;20243;-79
2023/07/13 06:50:41;;;;;;;6.50;6.00;;;26.60;99.90;;;;;;4969716;28;20305;-78
2023/07/13 06:53:09;;;;;;;6.20;5.70;;;26.60;99.90;;;;;;4987680;28;20225;-79
2023/07/13 06:55:35;;;;;;;7.77;5.70;;;26.50;99.90;;;;;;4977936;28;20206;-79
2023/07/13 06:58:02;;;;;;;6.20;5.70;;;26.60;99.90;;;;;;4962298;28;20197;-78
2023/07/13 07:00:29;;;;;;;6.50;5.87;;;26.90;99.90;;;;;;4975248;28;20221;-81
2023/07/13 07:02:57;;;;;;;5.63;5.13;;;27.20;99.90;;;;;;4983407;28;20637;-79
2023/07/13 07:05:24;;;;;;;6.30;5.43;;;27.60;99.90;;;;;;4968271;28;20280;-79
2023/07/13 07:07:52;;;;;;;5.43;4.47;;;27.80;99.90;;;;;;4984676;28;20201;-78
2023/07/13 07:10:19;;;;;;;6.10;5.60;;;27.60;99.90;;;;;;4989099;28;20606;-79
2023/07/13 07:12:46;;;;;;;5.57;5.07;;;27.90;99.90;;;;;;4969751;28;20225;-79
2023/07/13 07:15:13;;;;;;;7.50;5.50;;;28.00;99.90;;;;;;4986692;28;20280;-79
2023/07/13 07:17:40;;;;;;;6.63;5.30;;;28.20;99.90;;;;;;4970609;28;20201;-79
2023/07/13 07:20:10;;;;;;;5.50;5.10;;;28.00;98.40;;;;;;4974396;28;20297;-79
2023/07/13 07:22:37;;;;;;;5.97;5.20;;;27.60;99.20;;;;;;4969093;28;20694;-78
2023/07/13 07:25:04;;;;;;;5.80;5.30;;;27.20;99.60;;;;;;4981322;28;20276;-79
2023/07/13 07:27:31;;;;;;;5.80;5.40;;;26.80;99.30;;;;;;4991813;28;20201;-79
2023/07/13 07:29:58;;;;;;;5.70;5.20;;;26.20;99.90;;;;;;4991103;28;20194;-79
2023/07/13 07:32:25;;;;;;;5.83;4.67;;;25.70;99.90;;;;;;4991704;28;20218;-78
2023/07/13 07:34:52;;;;;;;6.27;4.30;;;25.80;99.90;;;;;;4976639;28;20641;-79
2023/07/13 07:37:20;;;;;;;6.13;5.53;;;26.40;99.90;;;;;;4990884;28;20201;-80
2023/07/13 07:39:47;;;;;;;4.53;3.93;;;26.90;99.90;;;;;;4987953;28;20280;-80
2023/07/13 07:42:13;;;;;;;4.20;3.80;;;27.50;98.80;;;;;;4986606;28;20213;-81
2023/07/13 07:44:41;;;;;;;5.60;5.20;;;27.90;97.70;;;;;;4969986;28;20256;-80
2023/07/13 07:47:09;;;;;;;6.57;5.20;;;27.90;96.60;;;;;;4973668;28;20201;-79
2023/07/13 07:49:36;;;;;;;4.67;4.33;;;27.20;97.20;;;;;;4967730;28;20608;-80
2023/07/13 07:52:03;;;;;;;4.57;3.70;;;26.80;98.10;;;;;;4985608;28;20276;-79
2023/07/13 07:54:31;;;;;;;4.90;4.57;;;26.50;97.30;;;;;;4983079;28;20240;-79
2023/07/13 07:56:58;;;;;;;4.37;4.17;;;26.30;98.40;;;;;;4983384;28;20255;-79
2023/07/13 07:59:24;;;;;;;5.10;4.77;;;26.10;98.80;;;;;;4977308;28;20210;-80
2023/07/13 08:01:51;;;;;;;3.43;2.20;;;26.20;99.30;;;;;;4972829;28;20229;-79
2023/07/13 08:04:18;;;;;;;2.53;2.00;;;26.30;97.30;;;;;;4972660;28;20201;-79
2023/07/13 08:06:45;;;;;;;4.33;2.00;;;26.70;98.50;;;;;;4987575;28;20202;-78
2023/07/13 08:09:12;;;;;;;2.67;1.90;;;27.30;96.40;;;;;;4989904;28;20202;-79
2023/07/13 08:11:40;;;;;;;7.37;3.40;;;27.40;95.90;;;;;;4994345;28;20296;-81
2023/07/13 08:14:07;;;;;;;3.33;2.60;;;27.40;95.90;;;;;;4988244;28;20189;-81
2023/07/13 08:16:33;;;;;;;5.50;5.10;;;27.80;97.00;;;;;;4991331;28;20228;-79
2023/07/13 08:19:00;;;;;;;5.93;5.23;;;28.50;96.00;;;;;;4990776;28;20198;-80
2023/07/13 08:21:28;;;;;;;5.97;5.40;;;28.80;94.30;;;;;;4966522;28;20233;-79
2023/07/13 08:23:55;;;;;;;5.70;5.30;;;28.70;92.60;;;;;;4986348;28;20221;-77
2023/07/13 08:26:21;;;;;;;5.47;5.07;;;29.00;92.90;;;;;;4956566;28;20206;-78
2023/07/13 08:28:49;;;;;;;5.50;5.00;;;29.20;93.30;;;;;;4965941;28;20285;-78
2023/07/13 08:31:16;;;;;;;4.57;4.10;;;29.40;94.30;;;;;;4970762;28;20222;-79
2023/07/13 08:33:43;;;;;;;5.63;5.07;;;29.60;93.70;;;;;;4972608;28;20302;-79
2023/07/13 08:36:10;;;;;;;4.90;4.40;;;29.10;90.90;;;;;;4957627;28;20205;-79
2023/07/13 08:38:37;;;;;;;4.03;3.70;;;29.40;92.50;;;;;;4957174;28;20218;-80
2023/07/13 08:41:12;;;;;;;5.33;4.93;;;29.40;92.50;;;;;;4956729;28;20284;-79
2023/07/13 08:43:40;;;;;;;5.50;5.10;;;29.30;92.50;;;;;;4987771;28;20204;-79
2023/07/13 08:46:14;;;;;;;5.40;4.90;;;29.50;92.90;;;;;;4990697;28;20275;-79
2023/07/13 08:48:45;;;;;;;5.30;4.90;;;29.20;92.10;;;;;;4989620;28;20224;-79
2023/07/13 08:51:25;;;;;;;5.70;5.30;;;29.20;92.20;;;;;;4983935;28;20213;-79
2023/07/13 08:53:56;;;;;;;5.77;5.23;;;29.40;92.00;;;;;;4969023;28;20221;-80
2023/07/13 08:56:26;;;;;;;5.93;4.80;;;29.90;91.10;;;;;;4988139;28;20813;-80
2023/07/13 08:58:57;;;;;;;5.10;4.70;;;29.70;91.60;;;;;;4986612;28;20261;-80
2023/07/13 09:01:33;;;;;;;5.10;4.70;;;29.40;91.30;;;;;;4977787;28;20288;-80
2023/07/13 09:04:06;;;;;;;5.80;5.10;;;29.20;91.80;;;;;;4976094;28;20196;-80
2023/07/13 09:06:42;;;;;;;5.40;5.00;;;29.50;92.90;;;;;;4973277;28;20197;-79
2023/07/13 09:09:25;;;;;;;5.60;5.10;;;29.90;92.10;;;;;;4963322;28;20268;-79
2023/07/13 09:12:03;;;;;;;5.77;5.27;;;30.10;92.50;;;;;;4974078;28;20312;-79
2023/07/13 09:14:43;;;;;;;6.27;5.77;;;30.30;91.50;;;;;;4986362;28;20683;-79
2023/07/13 09:17:19;;;;;;;5.63;5.13;;;30.10;89.00;;;;;;4971299;28;20576;-79
2023/07/13 09:19:54;;;;;;;6.00;5.50;;;29.90;90.00;;;;;;4987324;28;20611;-80
2023/07/13 09:22:23;;;;;;;6.03;5.53;;;29.50;88.30;;;;;;4977384;28;20221;-80
2023/07/13 09:24:56;;;;;;;5.90;5.40;;;29.60;91.10;;;;;;4983954;28;20668;-79
2023/07/13 09:27:25;;;;;;;6.00;5.40;;;30.00;91.00;;;;;;4951034;28;20696;-79
2023/07/13 09:29:59;;;;;;;5.33;4.93;;;30.20;88.60;;;;;;4982796;28;20206;-80
2023/07/13 09:32:28;;;;;;;6.77;5.37;;;30.50;90.30;;;;;;4961672;28;20292;-80
2023/07/13 09:34:56;;;;;;;5.70;4.90;;;30.70;88.70;;;;;;4990371;28;20197;-80
2023/07/13 09:37:29;;;;;;;5.90;5.30;;;30.60;88.30;;;;;;4987989;28;20193;-80
2023/07/13 09:39:59;;;;;;;5.70;5.30;;;30.50;90.30;;;;;;4983436;28;20260;-81
2023/07/13 09:42:28;;;;;;;6.03;5.63;;;30.70;89.30;;;;;;4980775;28;20219;-81
2023/07/13 09:44:56;;;;;;;5.40;5.00;;;30.80;86.00;;;;;;4988217;28;20205;-79
2023/07/13 09:47:26;;;;;;;5.55;5.07;;;31.10;85.50;;;;;;4977431;28;20277;-80
2023/07/13 09:50:00;;;;;;;6.28;5.70;;;31.20;86.30;;;;;;4952439;28;20206;-79
2023/07/13 09:52:28;;;;;;;5.40;5.00;;;31.30;85.70;;;;;;4962714;28;20642;-80
2023/07/13 09:54:58;;;;;;;6.18;5.68;;;30.80;84.80;;;;;;4965644;28;20672;-80
2023/07/13 09:57:28;;;;;;;6.10;5.60;;;31.10;84.90;;;;;;4967261;28;20186;-80
2023/07/13 09:59:58;;;;;;;5.88;5.45;;;31.10;86.70;;;;;;4974659;28;20370;-80
2023/07/13 10:02:28;;;;;;;6.25;5.68;;;31.50;87.30;;;;;;4972688;28;20639;-80
2023/07/13 10:05:02;;;;;;;5.93;5.53;;;31.90;81.50;;;;;;4955030;28;20696;-80
2023/07/13 10:07:30;;;;;;;6.10;5.50;;;32.20;84.70;;;;;;4955959;28;20197;-80
2023/07/13 10:10:00;;;;;;;6.53;5.30;;;32.30;83.30;;;;;;4960012;28;20493;-79
2023/07/13 10:12:28;;;;;;;5.30;4.90;;;31.70;77.60;;;;;;4956102;28;20222;-79
2023/07/13 10:14:58;;;;;;;5.78;5.38;;;30.90;83.70;;;;;;4955654;28;20265;-84
2023/07/13 10:17:31;;;;;;;5.70;5.30;;;30.70;84.40;;;;;;4962554;28;20209;-82
2023/07/13 10:20:04;;;;;;;5.78;5.10;;;30.90;84.40;;;;;;4954674;28;20201;-82
2023/07/13 10:22:39;;;;;;;5.40;4.90;;;31.10;84.10;;;;;;4976383;28;20193;-82
2023/07/13 10:25:17;;;;;;;5.90;5.40;;;30.90;82.50;;;;;;4979199;28;20205;-82
2023/07/13 10:27:44;;;;;;;5.47;5.07;;;31.00;81.80;;;;;;4973468;28;20212;-82
2023/07/13 10:30:17;;;;;;;5.63;5.20;;;30.80;84.50;;;;;;4972824;28;20240;-82
2023/07/13 10:32:46;;;;;;;5.87;4.80;;;30.40;83.80;;;;;;4977690;28;20222;-82
2023/07/13 10:35:17;;;;;;;5.50;4.83;;;30.50;84.80;;;;;;4950028;28;20650;-82
2023/07/13 10:37:50;;;;;;;6.47;5.00;;;30.60;82.80;;;;;;4972380;28;20190;-81
2023/07/13 10:40:22;;;;;;;5.27;4.70;;;30.70;85.30;;;;;;4972985;28;20213;-84
2023/07/13 10:42:53;;;;;;;5.40;5.00;;;30.40;83.20;;;;;;4948804;28;20213;-82
2023/07/13 10:45:23;;;;;;;5.70;5.20;;;30.40;82.30;;;;;;4972857;28;20194;-81
2023/07/13 10:47:52;;;;;;;5.20;4.80;;;29.70;81.40;;;;;;4956808;28;20272;-80
2023/07/13 10:50:24;;;;;;;4.90;4.50;;;29.60;84.70;;;;;;4954876;28;20212;-81
2023/07/13 10:53:21;;;;;;;4.93;4.53;;;29.80;81.70;;;;;;4978382;28;20238;-80
2023/07/13 10:56:32;;;;;;;5.00;4.60;;;29.60;82.20;;;;;;4966741;28;20660;-81
2023/07/13 10:59:27;;;;;;;3.20;2.90;;;29.30;82.80;;;;;;4950343;28;20224;-81
2023/07/13 11:02:00;;;;;;;4.17;1.70;;;29.10;84.00;;;;;;4958986;28;20321;-80
2023/07/13 11:04:30;;;;;;;3.97;2.97;;;29.10;82.40;;;;;;4971198;28;20186;-81
2023/07/13 11:07:10;;;;;;;2.80;1.90;;;29.20;85.50;;;;;;4954071;28;20213;-83
2023/07/13 11:09:40;;;;;;;3.50;1.90;;;29.50;84.70;;;;;;4976319;28;20205;-82
2023/07/13 11:12:28;;;;;;;2.50;1.87;;;29.80;85.80;;;;;;4968399;28;20272;-83
2023/07/13 11:15:27;;;;;;;4.13;2.00;;;29.90;81.60;;;;;;4978890;28;20201;-82
2023/07/13 11:17:59;;;;;;;1.80;1.70;;;29.70;81.00;;;;;;4957577;28;20206;-83
2023/07/13 11:20:39;;;;;;;2.27;1.80;;;29.40;82.40;;;;;;4955057;28;20281;-80
2023/07/13 11:23:28;;;;;;;3.20;1.80;;;29.40;84.00;;;;;;4971274;28;20289;-79
2023/07/13 11:25:55;;;;;;;4.33;4.03;;;29.40;82.30;;;;;;4973724;28;20578;-79
2023/07/13 11:28:28;;;;;;;4.00;3.80;;;29.50;83.60;;;;;;4984076;28;20626;-80
2023/07/13 11:31:03;;;;;;;2.93;1.87;;;29.40;82.90;;;;;;4984911;28;20267;-79
2023/07/13 11:33:48;;;;;;;4.90;4.50;;;29.10;84.80;;;;;;4985831;28;20292;-81
2023/07/13 11:36:19;;;;;;;2.03;1.70;;;29.00;85.00;;;;;;4968082;28;20197;-80
2023/07/13 11:39:00;;;;;;;2.67;1.90;;;29.20;85.20;;;;;;4985898;28;20284;-78
2023/07/13 11:41:30;;;;;;;4.70;4.20;;;29.20;86.10;;;;;;4963586;28;20699;-78
2023/07/13 11:44:08;;;;;;;3.73;2.50;;;28.90;86.30;;;;;;4996167;28;20259;-77
2023/07/13 11:46:35;;;;;;;2.50;2.30;;;28.90;86.00;;;;;;4976061;28;20201;-78
2023/07/13 11:49:01;;;;;;;5.00;4.70;;;28.70;84.20;;;;;;4991640;28;20201;-78
2023/07/13 11:51:31;;;;;;;3.07;1.90;;;28.40;86.40;;;;;;4983189;28;20269;-78
2023/07/13 11:54:04;;;;;;;2.63;2.00;;;28.40;84.80;;;;;;4957920;28;20260;-77
2023/07/13 11:56:32;;;;;;;3.57;2.80;;;28.60;86.50;;;;;;4988715;28;20205;-78
2023/07/13 11:59:04;;;;;;;2.67;2.00;;;28.50;83.40;;;;;;4991419;23;20314;-77
2023/07/13 12:01:33;;;;;;;4.27;2.00;;;28.00;83.60;;;;;;4957800;28;20198;-77
2023/07/13 12:04:02;;;;;;;5.33;2.50;;;28.20;86.00;;;;;;4957493;28;20676;-77
2023/07/13 12:06:31;;;;;;;3.63;2.53;;;28.40;86.00;;;;;;4956628;28;20202;-76
2023/07/13 12:09:00;;;;;;;6.43;2.83;;;28.40;85.50;;;;;;4957521;28;20215;-77
2023/07/13 12:11:28;;;;;;;4.03;2.70;;;28.20;85.30;;;;;;4951094;28;20328;-77
2023/07/13 12:13:55;;;;;;;4.37;2.80;;;28.00;86.40;;;;;;4948922;28;20215;-77
2023/07/13 12:16:28;;;;;;;5.30;4.90;;;27.70;88.90;;;;;;4947586;28;20198;-77
2023/07/13 12:18:56;;;;;;;3.07;2.40;;;27.40;89.90;;;;;;4943791;28;20662;-76
2023/07/13 12:21:28;;;;;;;3.27;2.70;;;27.20;88.50;;;;;;4952637;28;20203;-76
2023/07/13 12:23:55;;;;;;;3.63;3.10;;;27.40;85.50;;;;;;4950508;29;20253;-77
2023/07/13 12:26:23;;;;;;;3.90;1.80;;;27.60;85.10;;;;;;4943703;29;20226;-77
2023/07/13 12:28:56;;;;;;;2.30;1.70;;;28.00;86.60;;;;;;4950549;28;20764;-77
2023/07/13 12:31:32;;;;;;;2.23;1.83;;;28.20;83.30;;;;;;4946934;28;20665;-77
2023/07/13 12:34:00;;;;;;;2.93;2.20;;;28.40;85.40;;;;;;4934114;28;20219;-77
2023/07/13 12:36:30;;;;;;;2.53;1.87;;;28.40;84.20;;;;;;4950430;28;20213;-76
2023/07/13 12:39:13;;;;;;;3.17;1.90;;;28.10;87.90;;;;;;4954346;29;20264;-78
2023/07/13 12:41:43;;;;;;;3.83;2.20;;;27.60;86.30;;;;;;4926244;29;20199;-77
2023/07/13 12:44:15;;;;;;;5.27;4.77;;;27.50;87.40;;;;;;4935738;29;20732;-77
2023/07/13 12:46:57;;;;;;;5.77;3.97;;;27.50;85.70;;;;;;4945874;28;20210;-77
2023/07/13 12:49:34;;;;;;;2.90;2.13;;;27.30;85.70;;;;;;4930215;29;20712;-77
2023/07/13 12:52:04;;;;;;;3.90;3.60;;;27.30;88.30;;;;;;4941447;28;20634;-77
2023/07/13 12:54:32;;;;;;;5.27;4.77;;;27.50;87.50;;;;;;4939843;29;20275;-77
2023/07/13 12:57:03;;;;;;;5.43;4.80;;;27.60;87.60;;;;;;4942139;29;20232;-75
2023/07/13 12:59:36;;;;;;;5.37;4.73;;;27.50;87.60;;;;;;4946733;28;20251;-75